Time;durP1;ratioP1;P1;durP2;ratioP2;P2;SDS_P1;SDS_P2;PMS_P1;PMS_P2;Temp;Humidity;BMP_temperature;BMP_pressure;BME280_temperature;BME280_humidity;BME280_pressure;Samples;Min_cycle;Max_cycle;Signal;HPM_P1;HPM_P2
2022/09/24 00:01:10;;;;;;;;;;;13.70;99.90;;;;;;5082670;28;20035;-75
2022/09/24 00:03:36;;;;;;;43.25;29.92;;;13.60;99.90;;;;;;5082856;28;19998;-74
2022/09/24 00:06:03;;;;;;;50.78;29.85;;;13.60;99.90;;;;;;5075833;28;20115;-74
2022/09/24 00:08:28;;;;;;;45.92;31.08;;;13.60;99.90;;;;;;5084578;28;20405;-74
2022/09/24 00:10:56;;;;;;;49.30;31.60;;;13.60;99.90;;;;;;5054461;28;20044;-74
2022/09/24 00:13:22;;;;;;;45.65;32.15;;;13.70;99.90;;;;;;5068262;28;20060;-74
2022/09/24 00:15:49;;;;;;;49.05;32.70;;;13.70;99.90;;;;;;5051602;28;20131;-74
2022/09/24 00:18:17;;;;;;;52.45;33.75;;;13.70;99.90;;;;;;5075221;28;20505;-74
2022/09/24 00:20:43;;;;;;;53.95;34.67;;;13.60;99.90;;;;;;5089376;28;20032;-74
2022/09/24 00:23:10;;;;;;;;;;;13.60;99.90;;;;;;5075752;28;20094;-74
2022/09/24 00:28:28;;;;;;;48.05;31.35;;;13.70;99.90;;;;;;5061714;28;20491;-74
2022/09/24 00:30:57;;;;;;;47.85;33.42;;;13.70;99.90;;;;;;5015902;28;20046;-74
2022/09/24 00:33:23;;;;;;;52.47;34.30;;;13.70;99.90;;;;;;5028950;28;20052;-74
2022/09/24 00:35:50;;;;;;;53.38;35.83;;;13.70;99.90;;;;;;5069465;28;20040;-74
2022/09/24 00:38:16;;;;;;;48.30;34.28;;;13.70;99.90;;;;;;5045547;28;20044;-73
2022/09/24 00:40:42;;;;;;;50.87;34.93;;;13.70;99.90;;;;;;4990933;28;20049;-74
2022/09/24 00:43:28;;;;;;;52.75;33.97;;;13.60;99.90;;;;;;5027535;28;20117;-74
2022/09/24 00:46:32;;;;;;;57.58;36.95;;;13.70;99.90;;;;;;5030664;28;20117;-74
2022/09/24 00:49:02;;;;;;;55.47;35.83;;;13.70;99.90;;;;;;5029059;28;20052;-74
2022/09/24 00:51:30;;;;;;;55.00;37.30;;;13.70;99.90;;;;;;5049746;28;20167;-74
2022/09/24 00:54:00;;;;;;;54.08;36.03;;;13.70;99.90;;;;;;5069325;28;20505;-74
2022/09/24 00:56:28;;;;;;;59.25;38.92;;;13.70;99.90;;;;;;5038744;28;20038;-74
2022/09/24 00:58:56;;;;;;;55.45;37.22;;;13.70;99.90;;;;;;5007420;28;20485;-74
2022/09/24 01:01:24;;;;;;;56.70;37.22;;;13.70;99.90;;;;;;5026715;28;20561;-74
2022/09/24 01:03:51;;;;;;;60.33;38.83;;;13.60;99.90;;;;;;5038748;28;20041;-74
2022/09/24 01:06:17;;;;;;;59.00;38.33;;;13.70;99.90;;;;;;5025007;28;20186;-74
2022/09/24 01:08:44;;;;;;;61.30;39.50;;;13.70;99.90;;;;;;4992737;28;20070;-74
2022/09/24 01:11:34;;;;;;;58.92;39.10;;;13.70;99.90;;;;;;5058405;28;20071;-74
2022/09/24 01:14:25;;;;;;;64.68;38.85;;;13.70;99.90;;;;;;5039450;28;20547;-74
2022/09/24 01:17:13;;;;;;;67.20;40.42;;;13.70;99.90;;;;;;5027847;28;20495;-74
2022/09/24 01:20:01;;;;;;;;;;;13.70;99.90;;;;;;4998326;28;20053;-74
2022/09/24 01:22:52;;;;;;;60.08;37.67;;;13.70;99.90;;;;;;5023189;28;19960;-74
2022/09/24 01:25:19;;;;;;;62.38;40.25;;;13.70;99.90;;;;;;4987124;28;20502;-74
2022/09/24 01:28:08;;;;;;;62.47;40.08;;;13.70;99.90;;;;;;5055957;28;20042;-74
2022/09/24 01:30:37;;;;;;;66.95;41.28;;;13.70;99.90;;;;;;5066408;28;20398;-74
2022/09/24 01:33:13;;;;;;;67.95;40.78;;;13.70;99.90;;;;;;5076782;28;20043;-74
2022/09/24 01:35:42;;;;;;;61.17;37.92;;;13.70;99.90;;;;;;5073556;28;20087;-74
2022/09/24 01:38:40;;;;;;;71.25;43.35;;;13.80;99.90;;;;;;5072073;28;20129;-74
2022/09/24 01:41:08;;;;;;;;;;;13.80;99.90;;;;;;5068749;28;20074;-74
2022/09/24 01:43:33;;;;;;;71.38;42.67;;;13.70;99.90;;;;;;5071123;28;19917;-74
2022/09/24 01:46:05;;;;;;;67.95;40.83;;;13.70;99.90;;;;;;5062672;28;20038;-74
2022/09/24 01:48:32;;;;;;;70.88;42.13;;;13.70;99.90;;;;;;5080797;28;20091;-74
2022/09/24 01:51:01;;;;;;;75.10;41.83;;;13.70;99.90;;;;;;5072078;28;20098;-74
2022/09/24 01:53:47;;;;;;;77.07;44.42;;;13.70;99.90;;;;;;5076358;28;20038;-74
2022/09/24 01:56:23;;;;;;;82.67;46.37;;;13.70;99.90;;;;;;5047096;28;20049;-74
2022/09/24 01:58:56;;;;;;;77.53;44.58;;;13.70;99.90;;;;;;5077040;28;20050;-74
2022/09/24 02:01:28;;;;;;;85.25;46.97;;;13.70;99.90;;;;;;5057958;28;20069;-74
2022/09/24 02:04:05;;;;;;;79.88;46.35;;;13.70;99.90;;;;;;5074587;28;20116;-74
2022/09/24 02:06:35;;;;;;;86.47;47.65;;;13.70;99.90;;;;;;5077462;28;20040;-74
2022/09/24 02:09:01;;;;;;;92.75;47.28;;;13.70;99.90;;;;;;5079136;28;20515;-74
2022/09/24 02:11:29;;;;;;;88.85;48.60;;;13.70;99.90;;;;;;5081167;28;20078;-74
2022/09/24 02:13:59;;;;;;;90.82;47.40;;;13.70;99.90;;;;;;5072439;28;20036;-74
2022/09/24 02:16:48;;;;;;;92.45;50.17;;;13.70;99.90;;;;;;5062083;28;20050;-74
2022/09/24 02:19:20;;;;;;;89.65;47.38;;;13.70;99.90;;;;;;5067729;28;20030;-74
2022/09/24 02:21:47;;;;;;;99.63;50.30;;;13.70;99.90;;;;;;5054610;28;20120;-74
2022/09/24 02:24:21;;;;;;;105.78;52.38;;;13.70;99.90;;;;;;5062167;28;20034;-74
2022/09/24 02:26:48;;;;;;;96.78;51.67;;;13.70;99.90;;;;;;5060125;28;20545;-74
2022/09/24 02:29:14;;;;;;;102.95;52.38;;;13.60;99.90;;;;;;5079993;28;20048;-74
2022/09/24 02:31:48;;;;;;;124.38;57.78;;;13.60;99.90;;;;;;5069437;28;20041;-74
2022/09/24 02:34:21;;;;;;;114.20;56.78;;;13.60;99.90;;;;;;5069793;28;20037;-74
2022/09/24 02:37:10;;;;;;;120.18;58.53;;;13.60;99.90;;;;;;5058960;28;20098;-74
2022/09/24 02:39:37;;;;;;;113.43;57.65;;;13.60;99.90;;;;;;5070466;28;20038;-74
2022/09/24 02:42:04;;;;;;;98.15;54.28;;;13.60;99.90;;;;;;5074668;28;20044;-73
2022/09/24 02:44:31;;;;;;;116.22;58.08;;;13.60;99.90;;;;;;5076948;28;20032;-74
2022/09/24 02:46:57;;;;;;;135.43;63.75;;;13.60;99.90;;;;;;5061671;28;20091;-75
2022/09/24 02:49:23;;;;;;;126.63;59.53;;;13.60;99.90;;;;;;5071064;28;20046;-73
2022/09/24 02:51:49;;;;;;;140.20;61.92;;;13.50;99.90;;;;;;5079152;28;20046;-74
2022/09/24 02:54:15;;;;;;;156.40;63.33;;;13.50;99.90;;;;;;5075047;28;20497;-74
2022/09/24 02:56:40;;;;;;;143.18;61.17;;;13.50;99.90;;;;;;5066865;28;20657;-74
2022/09/24 02:59:07;;;;;;;139.50;57.40;;;13.50;99.90;;;;;;5073152;28;20038;-74
2022/09/24 03:01:34;;;;;;;130.48;58.97;;;13.50;99.90;;;;;;5074301;28;20038;-74
2022/09/24 03:04:00;;;;;;;131.73;57.70;;;13.50;99.90;;;;;;5073736;28;20121;-74
2022/09/24 03:06:26;;;;;;;142.35;58.05;;;13.50;99.90;;;;;;5026291;28;20046;-75
2022/09/24 03:08:52;;;;;;;102.72;52.00;;;13.50;99.90;;;;;;5071451;28;20051;-75
2022/09/24 03:11:20;;;;;;;;;;;13.50;99.90;;;;;;5057470;28;20141;-75
2022/09/24 03:13:46;;;;;;;111.03;53.33;;;13.50;99.90;;;;;;5050304;28;19918;-75
2022/09/24 03:16:11;;;;;;;161.75;61.58;;;13.50;99.90;;;;;;5082859;28;20372;-75
2022/09/24 03:18:37;;;;;;;150.03;59.77;;;13.50;99.90;;;;;;5081497;28;20044;-75
2022/09/24 03:21:09;;;;;;;205.10;67.55;;;13.50;99.90;;;;;;5063800;28;20034;-75
2022/09/24 03:23:34;;;;;;;151.00;61.75;;;13.50;99.90;;;;;;5064015;28;20040;-75
2022/09/24 03:26:00;;;;;;;206.07;67.70;;;13.50;99.90;;;;;;5051712;28;20049;-75
2022/09/24 03:28:26;;;;;;;171.85;64.47;;;13.40;99.90;;;;;;5069132;28;20052;-75
2022/09/24 03:30:59;;;;;;;166.48;62.60;;;13.40;99.90;;;;;;5066794;28;20502;-75
2022/09/24 03:33:51;;;;;;;148.20;63.53;;;13.40;99.90;;;;;;5041277;28;20042;-75
2022/09/24 03:36:22;;;;;;;120.50;56.40;;;13.40;99.90;;;;;;5038182;28;20414;-75
2022/09/24 03:38:49;;;;;;;131.63;59.20;;;13.40;99.90;;;;;;5066676;28;20034;-75
2022/09/24 03:41:16;;;;;;;123.50;56.55;;;13.40;99.90;;;;;;5066073;28;20431;-75
2022/09/24 03:43:42;;;;;;;84.35;45.80;;;13.40;99.90;;;;;;5081003;28;20040;-75
2022/09/24 03:46:09;;;;;;;73.45;39.97;;;13.40;99.90;;;;;;5064036;28;20492;-75
2022/09/24 03:48:37;;;;;;;72.38;39.55;;;13.40;99.90;;;;;;5067946;28;20046;-75
2022/09/24 03:51:11;;;;;;;69.53;39.80;;;13.40;99.90;;;;;;5063748;28;20056;-75
2022/09/24 03:53:38;;;;;;;88.43;46.20;;;13.40;99.90;;;;;;5073113;28;20035;-75
2022/09/24 03:56:05;;;;;;;75.60;40.92;;;13.40;99.90;;;;;;5061242;28;20365;-75
2022/09/24 03:58:36;;;;;;;68.05;39.67;;;13.40;99.90;;;;;;5049388;28;20063;-75
2022/09/24 04:01:02;;;;;;;93.20;46.97;;;13.50;99.90;;;;;;5072115;28;20085;-75
2022/09/24 04:03:28;;;;;;;82.60;42.08;;;13.50;99.90;;;;;;5068529;28;20074;-76
2022/09/24 04:05:54;;;;;;;82.75;41.97;;;13.40;99.90;;;;;;5076929;28;20072;-75
2022/09/24 04:08:21;;;;;;;65.73;36.10;;;13.50;99.90;;;;;;5074179;28;20568;-75
2022/09/24 04:10:50;;;;;;;90.70;42.33;;;13.50;99.90;;;;;;5077934;28;20078;-76
2022/09/24 04:13:17;;;;;;;68.75;38.25;;;13.50;99.90;;;;;;5060813;28;20099;-75
2022/09/24 04:15:43;;;;;;;81.05;40.08;;;13.50;99.90;;;;;;5084000;28;20042;-76
2022/09/24 04:18:09;;;;;;;73.10;36.53;;;13.50;99.90;;;;;;5076361;28;20034;-75
2022/09/24 04:20:35;;;;;;;;;;;13.50;99.90;;;;;;5068447;28;20292;-75
2022/09/24 04:23:01;;;;;;;66.22;34.83;;;13.60;99.90;;;;;;5099839;28;20008;-75
2022/09/24 04:25:31;;;;;;;70.70;34.50;;;13.60;99.90;;;;;;5065153;28;20137;-75
2022/09/24 04:28:04;;;;;;;58.17;31.73;;;13.60;99.90;;;;;;5057509;28;20049;-75
2022/09/24 04:30:30;;;;;;;63.20;33.47;;;13.60;99.90;;;;;;5071732;28;20397;-75
2022/09/24 04:32:59;;;;;;;53.63;28.55;;;13.60;99.90;;;;;;5008858;28;20041;-75
2022/09/24 04:35:25;;;;;;;51.13;27.30;;;13.60;99.90;;;;;;5071077;28;20113;-75
2022/09/24 04:37:51;;;;;;;44.58;24.20;;;13.60;99.90;;;;;;5076181;28;20038;-75
2022/09/24 04:40:16;;;;;;;43.30;20.50;;;13.60;99.90;;;;;;5059173;28;20049;-75
2022/09/24 04:42:46;;;;;;;39.00;20.25;;;13.60;99.90;;;;;;5067967;28;20368;-78
2022/09/24 04:45:16;;;;;;;35.20;17.92;;;13.60;99.90;;;;;;5073839;28;20065;-78
2022/09/24 04:47:42;;;;;;;30.17;14.93;;;13.60;99.90;;;;;;5074296;28;20034;-78
2022/09/24 04:50:10;;;;;;;28.13;13.73;;;13.60;99.90;;;;;;5066074;28;20065;-78
2022/09/24 04:52:36;;;;;;;26.10;12.23;;;13.60;99.90;;;;;;5056088;28;20174;-77
2022/09/24 04:55:02;;;;;;;;;;;13.60;99.90;;;;;;5071931;28;20051;-77
2022/09/24 04:57:33;;;;;;;22.83;8.32;;;13.60;99.90;;;;;;5084776;28;19921;-77
2022/09/24 04:59:59;;;;;;;16.45;7.43;;;13.60;99.90;;;;;;5070257;28;20551;-77
2022/09/24 05:02:25;;;;;;;22.85;6.75;;;13.60;99.90;;;;;;5065143;28;20050;-78
2022/09/24 05:04:50;;;;;;;16.27;5.72;;;13.60;99.90;;;;;;5081685;28;20488;-78
2022/09/24 05:07:16;;;;;;;16.70;4.47;;;13.60;99.90;;;;;;5075879;28;20039;-77
2022/09/24 05:09:42;;;;;;;17.15;3.45;;;13.50;99.90;;;;;;5064843;28;20046;-78
2022/09/24 05:12:07;;;;;;;10.20;2.30;;;13.50;99.90;;;;;;5070014;28;20041;-78
2022/09/24 05:14:33;;;;;;;14.68;2.70;;;13.50;99.90;;;;;;5075191;28;20048;-78
2022/09/24 05:16:59;;;;;;;9.82;2.22;;;13.50;99.90;;;;;;5037449;28;20031;-78
2022/09/24 05:19:24;;;;;;;13.47;2.20;;;13.50;99.90;;;;;;5045315;28;20168;-77
2022/09/24 05:21:50;;;;;;;12.47;2.70;;;13.50;99.90;;;;;;5071354;28;20341;-77
2022/09/24 05:24:16;;;;;;;11.63;2.03;;;13.50;99.90;;;;;;5078026;28;20364;-78
2022/09/24 05:29:25;;;;;;;10.60;1.90;;;13.40;99.90;;;;;;5058812;28;20042;-77
2022/09/24 05:31:51;;;;;;;11.70;1.80;;;13.40;99.90;;;;;;5054207;28;20094;-77
2022/09/24 05:34:17;;;;;;;9.40;1.83;;;13.40;99.90;;;;;;5075577;28;20316;-78
2022/09/24 05:36:43;;;;;;;8.07;1.77;;;13.40;99.90;;;;;;5081111;28;20294;-78
2022/09/24 05:39:10;;;;;;;10.45;1.67;;;13.40;99.90;;;;;;5047180;28;20034;-78
2022/09/24 05:41:36;;;;;;;10.98;1.98;;;13.30;99.90;;;;;;5047002;28;20065;-77
2022/09/24 05:44:03;;;;;;;10.00;1.60;;;13.30;99.90;;;;;;5074296;28;20507;-77
2022/09/24 05:46:28;;;;;;;7.88;1.55;;;13.30;99.90;;;;;;5066470;28;20040;-76
2022/09/24 05:48:54;;;;;;;8.85;1.90;;;13.30;99.90;;;;;;5058489;28;20049;-76
2022/09/24 05:51:21;;;;;;;9.38;2.28;;;13.40;99.90;;;;;;5072523;28;20504;-76
2022/09/24 05:53:47;;;;;;;10.65;2.13;;;13.40;99.90;;;;;;5076121;28;20048;-76
2022/09/24 05:56:13;;;;;;;9.90;1.83;;;13.40;99.90;;;;;;5047821;28;20072;-76
2022/09/24 05:58:39;;;;;;;8.68;1.77;;;13.40;99.90;;;;;;5073773;28;20064;-76
2022/09/24 06:01:04;;;;;;;11.95;1.67;;;13.40;99.90;;;;;;5063639;28;20073;-77
2022/09/24 06:03:30;;;;;;;7.53;1.70;;;13.40;99.90;;;;;;5081554;28;20040;-77
2022/09/24 06:06:00;;;;;;;11.13;1.85;;;13.40;99.90;;;;;;5061170;28;20038;-77
2022/09/24 06:08:27;;;;;;;11.05;1.75;;;13.40;99.90;;;;;;5053376;28;20133;-77
2022/09/24 06:11:01;;;;;;;10.60;2.03;;;13.50;99.90;;;;;;5053965;28;20050;-76
2022/09/24 06:13:27;;;;;;;11.65;1.90;;;13.50;99.90;;;;;;5080546;28;20044;-76
2022/09/24 06:15:59;;;;;;;;;;;13.40;99.90;;;;;;5081376;28;20393;-77
2022/09/24 06:18:24;;;;;;;9.43;1.70;;;13.50;99.90;;;;;;5037057;28;19947;-77
2022/09/24 06:20:50;;;;;;;7.93;1.63;;;13.50;99.90;;;;;;5076797;28;20048;-77
2022/09/24 06:23:15;;;;;;;10.47;2.07;;;13.50;99.90;;;;;;5073338;28;20320;-77
2022/09/24 06:25:41;;;;;;;12.63;2.40;;;13.50;99.90;;;;;;5044322;28;20050;-76
2022/09/24 06:28:07;;;;;;;12.82;2.33;;;13.50;99.90;;;;;;5082613;28;20042;-76
2022/09/24 06:30:37;;;;;;;8.85;2.03;;;13.60;99.90;;;;;;5067723;28;20129;-76
2022/09/24 06:33:11;;;;;;;13.63;2.33;;;13.60;99.90;;;;;;5075577;28;20077;-76
2022/09/24 06:35:38;;;;;;;15.63;2.47;;;13.60;99.90;;;;;;5063942;28;20046;-76
2022/09/24 06:38:05;;;;;;;10.20;2.08;;;13.60;99.90;;;;;;5075633;28;20524;-76
2022/09/24 06:40:32;;;;;;;11.18;2.63;;;13.60;99.90;;;;;;5080531;28;20537;-76
2022/09/24 06:42:58;;;;;;;15.55;2.55;;;13.60;99.90;;;;;;5050704;28;20034;-77
2022/09/24 06:45:25;;;;;;;15.60;2.00;;;13.70;99.90;;;;;;5076443;28;20038;-77
2022/09/24 06:47:56;;;;;;;13.18;2.63;;;13.70;99.90;;;;;;5049692;28;20097;-76
2022/09/24 06:50:23;;;;;;;11.95;2.15;;;13.70;99.90;;;;;;5058425;28;20041;-76
2022/09/24 06:52:48;;;;;;;10.98;1.80;;;13.70;99.90;;;;;;5086703;28;20044;-76
2022/09/24 06:55:15;;;;;;;7.93;2.20;;;13.70;99.90;;;;;;5061157;28;20401;-76
2022/09/24 06:57:41;;;;;;;12.02;2.03;;;13.70;99.90;;;;;;5046190;28;20314;-75
2022/09/24 07:00:07;;;;;;;13.05;2.13;;;13.80;99.90;;;;;;5072567;28;20041;-75
2022/09/24 07:02:33;;;;;;;10.70;2.40;;;13.80;99.90;;;;;;5072386;28;20111;-75
2022/09/24 07:04:58;;;;;;;11.20;2.37;;;13.80;99.90;;;;;;5070491;28;20515;-76
2022/09/24 07:07:33;;;;;;;10.45;2.03;;;13.80;99.90;;;;;;5071422;28;20620;-76
2022/09/24 07:10:00;;;;;;;12.70;2.08;;;13.80;99.90;;;;;;5072323;28;20053;-75
2022/09/24 07:12:28;;;;;;;9.88;1.80;;;13.90;99.90;;;;;;5069807;28;20099;-75
2022/09/24 07:14:55;;;;;;;12.60;2.53;;;13.90;99.90;;;;;;5051685;28;20157;-75
2022/09/24 07:17:21;;;;;;;14.57;2.15;;;13.90;99.90;;;;;;5067818;28;20097;-76
2022/09/24 07:19:46;;;;;;;9.35;1.83;;;13.90;99.90;;;;;;5065897;28;20047;-76
2022/09/24 07:22:12;;;;;;;17.20;2.28;;;14.00;99.90;;;;;;5063059;28;20034;-76
2022/09/24 07:24:38;;;;;;;11.73;2.17;;;14.00;99.90;;;;;;5081150;28;20036;-76
2022/09/24 07:27:05;;;;;;;14.23;2.42;;;14.00;99.90;;;;;;5072299;28;20108;-76
2022/09/24 07:29:31;;;;;;;13.07;1.95;;;14.10;99.90;;;;;;5077164;28;20121;-76
2022/09/24 07:31:56;;;;;;;10.07;2.63;;;14.10;99.90;;;;;;5068274;28;20446;-75
2022/09/24 07:34:22;;;;;;;11.60;2.13;;;14.20;99.90;;;;;;5043802;28;20048;-76
2022/09/24 07:36:48;;;;;;;14.30;3.13;;;14.20;99.90;;;;;;5072595;28;20049;-75
2022/09/24 07:39:14;;;;;;;9.88;2.00;;;14.20;99.90;;;;;;5054186;28;20033;-75
2022/09/24 07:41:41;;;;;;;10.55;2.47;;;14.20;99.90;;;;;;5068367;28;20038;-76
2022/09/24 07:44:07;;;;;;;9.45;1.80;;;14.30;99.90;;;;;;5068818;28;20049;-75
2022/09/24 07:46:33;;;;;;;;;;;14.20;99.90;;;;;;5076792;28;20038;-76
2022/09/24 07:48:59;;;;;;;8.50;1.65;;;14.30;99.90;;;;;;5074049;28;19917;-76
2022/09/24 07:51:27;;;;;;;8.90;1.60;;;14.30;99.90;;;;;;5076029;28;20541;-76
2022/09/24 07:53:57;;;;;;;10.05;1.60;;;14.30;99.90;;;;;;5074293;28;20121;-77
2022/09/24 07:56:23;;;;;;;7.18;2.15;;;14.30;99.90;;;;;;5082239;28;20480;-77
2022/09/24 07:58:51;;;;;;;8.07;1.40;;;14.20;99.90;;;;;;5054664;28;20056;-77
2022/09/24 08:01:17;;;;;;;12.25;1.48;;;14.20;99.90;;;;;;5063176;28;20037;-77
2022/09/24 08:03:45;;;;;;;8.30;1.35;;;14.10;99.90;;;;;;5079258;28;20041;-77
2022/09/24 08:06:11;;;;;;;7.15;1.63;;;14.10;99.90;;;;;;5052372;28;20049;-77
2022/09/24 08:08:37;;;;;;;;;;;14.10;99.90;;;;;;5032596;28;20093;-77
2022/09/24 08:11:04;;;;;;;6.60;1.58;;;14.10;99.90;;;;;;5072437;28;20319;-76
2022/09/24 08:13:30;;;;;;;8.13;1.52;;;14.20;99.90;;;;;;5062672;28;20080;-77
2022/09/24 08:16:00;;;;;;;8.93;1.35;;;14.30;99.90;;;;;;5078586;28;20081;-76
2022/09/24 08:18:28;;;;;;;6.50;1.33;;;14.40;99.90;;;;;;5078043;28;20095;-76
2022/09/24 08:20:54;;;;;;;13.88;1.60;;;14.50;99.90;;;;;;5062270;28;20394;-76
2022/09/24 08:23:19;;;;;;;11.07;1.67;;;14.50;99.90;;;;;;5078723;28;20121;-76
2022/09/24 08:25:46;;;;;;;11.70;2.17;;;14.50;99.90;;;;;;5078093;28;20293;-76
2022/09/24 08:28:15;;;;;;;9.13;1.77;;;14.60;99.90;;;;;;5078443;28;20099;-76
2022/09/24 08:30:42;;;;;;;12.20;1.58;;;14.60;99.90;;;;;;5078080;28;20041;-76
2022/09/24 08:33:09;;;;;;;11.10;1.45;;;14.60;99.90;;;;;;5078943;28;20552;-76
2022/09/24 08:35:35;;;;;;;;;;;14.60;99.90;;;;;;5078521;28;20065;-76
2022/09/24 08:38:02;;;;;;;8.70;1.63;;;14.70;99.90;;;;;;5078098;28;19972;-76
2022/09/24 08:40:38;;;;;;;9.80;2.40;;;14.70;99.90;;;;;;5078597;28;20501;-76
2022/09/24 08:43:09;;;;;;;11.27;1.70;;;14.60;99.90;;;;;;5061947;28;20041;-76
2022/09/24 08:48:33;;;;;;;16.10;1.52;;;14.70;99.90;;;;;;5077776;28;20083;-76
2022/09/24 08:51:03;;;;;;;8.25;2.03;;;14.70;99.90;;;;;;5078539;28;20057;-76
2022/09/24 08:53:51;;;;;;;12.55;1.80;;;14.60;99.90;;;;;;5078180;28;20125;-76
2022/09/24 08:56:24;;;;;;;9.85;1.88;;;14.60;99.90;;;;;;5078112;28;20048;-76
2022/09/24 08:58:58;;;;;;;11.10;1.75;;;14.60;99.90;;;;;;5061262;28;20046;-75
2022/09/24 09:01:33;;;;;;;18.77;1.77;;;14.60;99.90;;;;;;5078161;28;20589;-75
2022/09/24 09:04:17;;;;;;;7.43;1.95;;;14.60;99.90;;;;;;5078287;28;20038;-75
2022/09/24 09:07:09;;;;;;;16.85;2.17;;;14.60;99.90;;;;;;5077605;28;20046;-76
2022/09/24 09:09:47;;;;;;;9.15;1.63;;;14.60;99.90;;;;;;5077788;28;20541;-76
2022/09/24 09:12:20;;;;;;;8.43;2.05;;;14.60;99.90;;;;;;5077880;28;20038;-76
2022/09/24 09:15:02;;;;;;;11.10;1.40;;;14.60;99.90;;;;;;5077323;28;20089;-76
2022/09/24 09:17:41;;;;;;;6.88;1.35;;;14.60;99.90;;;;;;5077778;28;20060;-76
2022/09/24 09:20:17;;;;;;;7.60;1.48;;;14.70;99.90;;;;;;5060622;28;20077;-76
2022/09/24 09:22:52;;;;;;;10.13;1.52;;;14.60;99.90;;;;;;5060835;28;20046;-76
2022/09/24 09:25:24;;;;;;;3.80;0.90;;;14.70;99.90;;;;;;5009616;28;20089;-76
2022/09/24 09:28:14;;;;;;;10.40;1.75;;;14.80;99.90;;;;;;5077505;28;20468;-75
2022/09/24 09:30:48;;;;;;;6.25;1.35;;;14.80;99.90;;;;;;5065061;28;20065;-76
2022/09/24 09:33:20;;;;;;;8.90;1.35;;;14.80;99.90;;;;;;5077402;28;20075;-76
2022/09/24 09:36:13;;;;;;;7.97;1.02;;;14.80;99.90;;;;;;5077041;28;20132;-75
2022/09/24 09:39:30;;;;;;;7.95;1.25;;;14.80;99.90;;;;;;5077159;28;20046;-75
2022/09/24 09:42:03;;;;;;;5.53;1.05;;;14.80;99.90;;;;;;5035427;28;20064;-76
2022/09/24 09:44:36;;;;;;;5.38;0.90;;;14.80;99.90;;;;;;5077304;28;20117;-76
2022/09/24 09:47:10;;;;;;;5.72;1.35;;;14.80;99.90;;;;;;5076942;28;20102;-75
2022/09/24 09:49:37;;;;;;;4.80;0.95;;;14.80;99.90;;;;;;5076957;28;20042;-75
2022/09/24 09:52:13;;;;;;;3.97;0.73;;;14.80;99.90;;;;;;5076944;28;20054;-76
2022/09/24 09:54:40;;;;;;;5.10;0.82;;;14.70;99.90;;;;;;5076769;28;20046;-75
2022/09/24 09:57:13;;;;;;;3.42;0.50;;;14.80;99.90;;;;;;5077041;28;20046;-75
2022/09/24 09:59:39;;;;;;;3.42;0.65;;;14.80;99.90;;;;;;5076929;28;20119;-75
2022/09/24 10:02:10;;;;;;;3.70;0.60;;;14.70;99.90;;;;;;5076028;28;20121;-76
2022/09/24 10:04:39;;;;;;;4.95;0.65;;;14.80;99.90;;;;;;5076853;28;20045;-75
2022/09/24 10:07:14;;;;;;;2.30;0.60;;;14.80;99.90;;;;;;5076666;28;20038;-76
2022/09/24 10:09:42;;;;;;;4.15;0.88;;;14.90;99.90;;;;;;5076874;28;20080;-75
2022/09/24 10:12:16;;;;;;;3.33;0.90;;;15.00;99.90;;;;;;5077252;28;20516;-75
2022/09/24 10:14:43;;;;;;;2.80;0.70;;;15.10;99.90;;;;;;5076674;28;20060;-75
2022/09/24 10:17:12;;;;;;;;;;;15.20;99.90;;;;;;5060120;28;20410;-75
2022/09/24 10:19:40;;;;;;;3.88;0.50;;;15.20;99.90;;;;;;5076440;28;19943;-75
2022/09/24 10:22:17;;;;;;;2.92;0.60;;;15.30;99.90;;;;;;5009223;28;20116;-75
2022/09/24 10:24:43;;;;;;;1.70;0.60;;;15.30;99.90;;;;;;5076611;28;20395;-75
2022/09/24 10:27:11;;;;;;;4.20;0.60;;;15.20;99.90;;;;;;5071024;28;20052;-74
2022/09/24 10:32:23;;;;;;;5.15;0.90;;;15.20;99.90;;;;;;5075696;28;20194;-76
2022/09/24 10:35:00;;;;;;;4.80;0.80;;;15.20;99.90;;;;;;5089758;28;20044;-76
2022/09/24 10:37:26;;;;;;;;;;;15.20;99.90;;;;;;5090646;28;20096;-75
2022/09/24 10:40:24;;;;;;;5.63;1.00;;;15.20;99.90;;;;;;5123843;27;19920;-75
2022/09/24 10:43:02;;;;;;;3.83;0.95;;;15.30;99.90;;;;;;5074137;28;20052;-76
2022/09/24 10:46:00;;;;;;;5.00;1.00;;;15.30;99.90;;;;;;5089946;28;20036;-75
2022/09/24 10:48:26;;;;;;;;;;;15.30;99.90;;;;;;5086601;28;20060;-75
2022/09/24 10:51:04;;;;;;;9.85;1.27;;;15.40;99.90;;;;;;5072770;28;19919;-75
2022/09/24 10:53:38;;;;;;;4.97;1.10;;;15.30;99.90;;;;;;5090272;28;20553;-75
2022/09/24 10:56:35;;;;;;;6.45;1.20;;;15.30;99.90;;;;;;5089663;28;20044;-75
2022/09/24 10:59:26;;;;;;;8.13;1.27;;;15.30;99.90;;;;;;5089693;28;20067;-75
2022/09/24 11:02:24;;;;;;;5.35;1.00;;;15.30;99.90;;;;;;5089828;28;20497;-75
2022/09/24 11:04:57;;;;;;;4.95;1.00;;;15.20;99.90;;;;;;5072660;28;20112;-75
2022/09/24 11:07:26;;;;;;;5.40;1.05;;;15.30;99.90;;;;;;5089454;28;20047;-75
2022/09/24 11:09:54;;;;;;;6.03;1.00;;;15.20;99.90;;;;;;5089465;28;20047;-76
2022/09/24 11:12:58;;;;;;;5.07;0.80;;;15.20;99.90;;;;;;5091263;28;20082;-76
2022/09/24 11:15:33;;;;;;;5.07;0.90;;;15.30;99.90;;;;;;5093707;28;20044;-75
2022/09/24 11:18:23;;;;;;;6.18;1.10;;;15.20;99.90;;;;;;5093630;28;20040;-75
2022/09/24 11:21:12;;;;;;;7.30;0.90;;;15.20;99.90;;;;;;5093674;28;20483;-75
2022/09/24 11:23:43;;;;;;;3.45;0.70;;;15.20;99.90;;;;;;5093625;28;20117;-76
2022/09/24 11:26:34;;;;;;;5.47;0.80;;;15.20;99.90;;;;;;5093290;28;20532;-75
2022/09/24 11:29:19;;;;;;;6.28;1.00;;;15.10;99.90;;;;;;5094050;28;20507;-75
2022/09/24 11:31:45;;;;;;;4.68;0.68;;;15.10;99.90;;;;;;5093724;28;20497;-75
2022/09/24 11:34:29;;;;;;;4.20;1.07;;;15.00;99.90;;;;;;5093486;28;20036;-76
2022/09/24 11:37:10;;;;;;;7.15;1.10;;;15.00;99.90;;;;;;5076349;28;20050;-75
2022/09/24 11:40:03;;;;;;;5.35;1.45;;;15.00;99.90;;;;;;5093322;28;20458;-75
2022/09/24 11:42:46;;;;;;;4.63;0.98;;;15.00;99.90;;;;;;5093457;28;20089;-75
2022/09/24 11:45:11;;;;;;;5.38;1.00;;;15.00;99.90;;;;;;5076250;28;20115;-75
2022/09/24 11:48:14;;;;;;;4.63;1.00;;;14.90;99.90;;;;;;5081821;28;20123;-75
2022/09/24 11:51:17;;;;;;;6.72;1.15;;;14.90;99.90;;;;;;5074046;28;20543;-76
2022/09/24 11:54:06;;;;;;;6.30;1.00;;;14.90;99.90;;;;;;5075556;28;20055;-75
2022/09/24 11:56:46;;;;;;;4.43;0.93;;;14.90;99.90;;;;;;5084791;28;20081;-75
2022/09/24 11:59:31;;;;;;;6.95;1.02;;;14.90;99.90;;;;;;5079162;28;20040;-75
2022/09/24 12:02:24;;;;;;;5.93;1.05;;;15.00;99.90;;;;;;5078425;28;20097;-75
2022/09/24 12:04:56;;;;;;;7.53;1.67;;;15.00;99.90;;;;;;5077628;28;20040;-75
2022/09/24 12:07:30;;;;;;;8.85;1.00;;;15.00;99.90;;;;;;5085644;28;20032;-75
2022/09/24 12:10:02;;;;;;;3.92;0.63;;;15.00;99.90;;;;;;5077239;28;20528;-77
2022/09/24 12:12:41;;;;;;;4.22;0.98;;;15.00;99.90;;;;;;5079815;28;20047;-76
2022/09/24 12:15:44;;;;;;;3.28;0.93;;;15.00;99.90;;;;;;5068962;28;20134;-77
2022/09/24 12:18:31;;;;;;;4.05;0.70;;;15.00;99.90;;;;;;5049718;28;20155;-77
2022/09/24 12:21:06;;;;;;;5.07;0.82;;;15.00;99.90;;;;;;5074195;28;20036;-76
2022/09/24 12:23:41;;;;;;;3.40;0.65;;;15.10;99.90;;;;;;5078665;28;20066;-76
2022/09/24 12:26:09;;;;;;;6.00;0.75;;;15.00;99.90;;;;;;5079578;28;20048;-76
2022/09/24 12:35:04;;;;;;;2.08;0.50;;;15.00;99.90;;;;;;5082092;28;20914;-77
2022/09/24 12:37:39;;;;;;;4.40;0.70;;;15.00;99.90;;;;;;5063389;28;20051;-76
2022/09/24 12:40:11;;;;;;;4.63;0.60;;;15.00;99.90;;;;;;5072000;28;20090;-76
2022/09/24 12:42:44;;;;;;;2.78;0.60;;;15.00;99.90;;;;;;5074194;28;20042;-77
2022/09/24 12:45:17;;;;;;;3.85;0.63;;;15.00;99.90;;;;;;5081475;28;20456;-76
2022/09/24 12:47:54;;;;;;;5.85;0.80;;;15.00;99.90;;;;;;5082073;28;20041;-77
2022/09/24 12:50:27;;;;;;;5.47;0.70;;;15.10;99.90;;;;;;5086653;28;20050;-77
2022/09/24 12:52:53;;;;;;;6.07;1.05;;;15.20;99.90;;;;;;5064591;28;20048;-76
2022/09/24 12:55:30;;;;;;;4.53;0.55;;;15.20;99.90;;;;;;5081056;28;20123;-77
2022/09/24 12:58:05;;;;;;;3.88;0.60;;;15.20;99.90;;;;;;5056966;28;20583;-77
2022/09/24 13:00:31;;;;;;;5.60;0.88;;;15.20;99.90;;;;;;5083751;28;20124;-77
2022/09/24 13:02:57;;;;;;;3.78;0.60;;;15.20;99.90;;;;;;5074200;28;20119;-77
2022/09/24 13:05:26;;;;;;;3.13;0.77;;;15.20;99.90;;;;;;5061742;28;20048;-77
2022/09/24 13:08:00;;;;;;;3.47;0.70;;;15.20;99.90;;;;;;5071417;28;20044;-77
2022/09/24 13:10:35;;;;;;;3.67;0.70;;;15.20;99.90;;;;;;5086071;28;20039;-77
2022/09/24 13:13:03;;;;;;;4.53;0.65;;;15.20;99.90;;;;;;5074082;28;20386;-76
2022/09/24 13:15:39;;;;;;;3.70;0.80;;;15.00;99.90;;;;;;5083558;28;20082;-76
2022/09/24 13:18:08;;;;;;;5.43;0.90;;;14.90;99.90;;;;;;5058945;28;20052;-76
2022/09/24 13:20:36;;;;;;;3.28;0.73;;;14.90;99.90;;;;;;5082321;28;20431;-76